sensor_id;sensor_type;location;lat;lon;timestamp;P1;durP1;ratioP1;P2;durP2;ratioP2
68212;SDS011;55035;47.792;8.724;2022-11-15T00:01:44;13.80;;;5.60;;
68212;SDS011;55035;47.792;8.724;2022-11-15T00:04:29;11.85;;;5.07;;
68212;SDS011;55035;47.792;8.724;2022-11-15T00:07:15;11.80;;;4.72;;
68212;SDS011;55035;47.792;8.724;2022-11-15T00:10:02;20.63;;;4.82;;
68212;SDS011;55035;47.792;8.724;2022-11-15T00:12:47;13.80;;;5.03;;
68212;SDS011;55035;47.792;8.724;2022-11-15T00:15:34;11.30;;;4.78;;
68212;SDS011;55035;47.792;8.724;2022-11-15T00:18:19;10.75;;;4.50;;
68212;SDS011;55035;47.792;8.724;2022-11-15T00:21:05;11.82;;;4.78;;
68212;SDS011;55035;47.792;8.724;2022-11-15T00:23:51;12.27;;;5.20;;
68212;SDS011;55035;47.792;8.724;2022-11-15T00:26:37;12.97;;;5.50;;
68212;SDS011;55035;47.792;8.724;2022-11-15T00:29:23;13.40;;;5.40;;
68212;SDS011;55035;47.792;8.724;2022-11-15T00:32:08;12.70;;;5.20;;
68212;SDS011;55035;47.792;8.724;2022-11-15T00:34:54;16.35;;;6.43;;
68212;SDS011;55035;47.792;8.724;2022-11-15T00:37:39;14.27;;;5.68;;
68212;SDS011;55035;47.792;8.724;2022-11-15T00:40:25;12.23;;;4.80;;
68212;SDS011;55035;47.792;8.724;2022-11-15T00:43:12;11.73;;;4.70;;
68212;SDS011;55035;47.792;8.724;2022-11-15T00:45:57;12.13;;;4.90;;
68212;SDS011;55035;47.792;8.724;2022-11-15T00:48:43;12.13;;;4.88;;
68212;SDS011;55035;47.792;8.724;2022-11-15T00:51:29;14.57;;;4.80;;
68212;SDS011;55035;47.792;8.724;2022-11-15T00:54:15;12.30;;;5.20;;
68212;SDS011;55035;47.792;8.724;2022-11-15T00:57:00;13.32;;;5.57;;
68212;SDS011;55035;47.792;8.724;2022-11-15T00:59:47;12.20;;;5.18;;
68212;SDS011;55035;47.792;8.724;2022-11-15T01:02:32;11.07;;;5.25;;
68212;SDS011;55035;47.792;8.724;2022-11-15T01:05:18;10.90;;;4.40;;
68212;SDS011;55035;47.792;8.724;2022-11-15T01:08:03;12.43;;;4.70;;
68212;SDS011;55035;47.792;8.724;2022-11-15T01:10:49;11.60;;;4.88;;
68212;SDS011;55035;47.792;8.724;2022-11-15T01:13:34;11.07;;;4.75;;
68212;SDS011;55035;47.792;8.724;2022-11-15T01:16:21;12.75;;;5.32;;
68212;SDS011;55035;47.792;8.724;2022-11-15T01:19:07;14.20;;;5.70;;
68212;SDS011;55035;47.792;8.724;2022-11-15T01:21:52;13.93;;;5.53;;
68212;SDS011;55035;47.792;8.724;2022-11-15T01:24:38;15.90;;;5.97;;
68212;SDS011;55035;47.792;8.724;2022-11-15T01:27:24;13.52;;;5.35;;
68212;SDS011;55035;47.792;8.724;2022-11-15T01:30:15;13.00;;;5.13;;
68212;SDS011;55035;47.792;8.724;2022-11-15T01:33:05;12.57;;;6.00;;
68212;SDS011;55035;47.792;8.724;2022-11-15T01:35:50;16.97;;;6.30;;
68212;SDS011;55035;47.792;8.724;2022-11-15T01:38:36;13.35;;;5.22;;
68212;SDS011;55035;47.792;8.724;2022-11-15T01:41:22;21.83;;;7.55;;
68212;SDS011;55035;47.792;8.724;2022-11-15T01:47:13;16.35;;;6.10;;
68212;SDS011;55035;47.792;8.724;2022-11-15T01:50:02;14.57;;;6.20;;
68212;SDS011;55035;47.792;8.724;2022-11-15T01:52:49;14.70;;;5.88;;
68212;SDS011;55035;47.792;8.724;2022-11-15T01:55:38;19.20;;;7.28;;
68212;SDS011;55035;47.792;8.724;2022-11-15T01:58:23;23.23;;;7.78;;
68212;SDS011;55035;47.792;8.724;2022-11-15T02:01:09;17.55;;;7.00;;
68212;SDS011;55035;47.792;8.724;2022-11-15T02:03:56;18.03;;;6.97;;
68212;SDS011;55035;47.792;8.724;2022-11-15T02:06:50;15.68;;;5.80;;
68212;SDS011;55035;47.792;8.724;2022-11-15T02:09:36;16.75;;;6.53;;
68212;SDS011;55035;47.792;8.724;2022-11-15T02:12:21;19.52;;;7.20;;
68212;SDS011;55035;47.792;8.724;2022-11-15T02:15:07;20.92;;;7.22;;
68212;SDS011;55035;47.792;8.724;2022-11-15T02:17:59;18.60;;;7.03;;
68212;SDS011;55035;47.792;8.724;2022-11-15T02:23:53;15.35;;;5.55;;
68212;SDS011;55035;47.792;8.724;2022-11-15T02:26:53;12.93;;;4.80;;
68212;SDS011;55035;47.792;8.724;2022-11-15T02:29:48;13.32;;;5.43;;
68212;SDS011;55035;47.792;8.724;2022-11-15T02:32:44;10.63;;;4.30;;
68212;SDS011;55035;47.792;8.724;2022-11-15T02:35:34;11.05;;;4.43;;
68212;SDS011;55035;47.792;8.724;2022-11-15T02:38:24;13.57;;;4.63;;
68212;SDS011;55035;47.792;8.724;2022-11-15T02:41:13;11.85;;;4.15;;
68212;SDS011;55035;47.792;8.724;2022-11-15T02:44:00;11.60;;;4.50;;
68212;SDS011;55035;47.792;8.724;2022-11-15T02:46:45;11.60;;;4.80;;
68212;SDS011;55035;47.792;8.724;2022-11-15T02:49:53;12.02;;;4.70;;
68212;SDS011;55035;47.792;8.724;2022-11-15T02:52:39;11.77;;;4.68;;
68212;SDS011;55035;47.792;8.724;2022-11-15T02:55:28;11.70;;;4.70;;
68212;SDS011;55035;47.792;8.724;2022-11-15T02:58:24;13.50;;;4.57;;
68212;SDS011;55035;47.792;8.724;2022-11-15T03:01:15;12.57;;;5.10;;
68212;SDS011;55035;47.792;8.724;2022-11-15T03:04:06;11.38;;;4.63;;
68212;SDS011;55035;47.792;8.724;2022-11-15T03:06:57;12.50;;;4.53;;
68212;SDS011;55035;47.792;8.724;2022-11-15T03:09:46;11.52;;;4.57;;
68212;SDS011;55035;47.792;8.724;2022-11-15T03:12:34;11.00;;;4.60;;
68212;SDS011;55035;47.792;8.724;2022-11-15T03:15:24;10.07;;;4.15;;
68212;SDS011;55035;47.792;8.724;2022-11-15T03:18:12;13.43;;;4.47;;
68212;SDS011;55035;47.792;8.724;2022-11-15T03:21:02;10.38;;;3.95;;
68212;SDS011;55035;47.792;8.724;2022-11-15T03:23:51;11.73;;;4.35;;
68212;SDS011;55035;47.792;8.724;2022-11-15T03:26:38;9.27;;;4.15;;
68212;SDS011;55035;47.792;8.724;2022-11-15T03:29:24;11.10;;;4.18;;
68212;SDS011;55035;47.792;8.724;2022-11-15T03:32:13;9.20;;;3.78;;
68212;SDS011;55035;47.792;8.724;2022-11-15T03:35:01;9.50;;;4.22;;
68212;SDS011;55035;47.792;8.724;2022-11-15T03:37:49;11.52;;;4.03;;
68212;SDS011;55035;47.792;8.724;2022-11-15T03:40:37;10.50;;;3.95;;
68212;SDS011;55035;47.792;8.724;2022-11-15T03:43:24;10.47;;;4.40;;
68212;SDS011;55035;47.792;8.724;2022-11-15T03:46:14;10.00;;;4.07;;
68212;SDS011;55035;47.792;8.724;2022-11-15T03:49:05;10.10;;;3.92;;
68212;SDS011;55035;47.792;8.724;2022-11-15T03:51:52;10.65;;;4.22;;
68212;SDS011;55035;47.792;8.724;2022-11-15T03:54:47;10.00;;;4.18;;
68212;SDS011;55035;47.792;8.724;2022-11-15T03:57:34;12.75;;;4.10;;
68212;SDS011;55035;47.792;8.724;2022-11-15T04:00:19;9.98;;;4.38;;
68212;SDS011;55035;47.792;8.724;2022-11-15T04:03:05;12.85;;;4.60;;
68212;SDS011;55035;47.792;8.724;2022-11-15T04:05:51;15.30;;;5.60;;
68212;SDS011;55035;47.792;8.724;2022-11-15T04:08:36;19.38;;;5.05;;
68212;SDS011;55035;47.792;8.724;2022-11-15T04:11:22;13.70;;;4.45;;
68212;SDS011;55035;47.792;8.724;2022-11-15T04:14:08;14.95;;;6.03;;
68212;SDS011;55035;47.792;8.724;2022-11-15T04:16:54;16.00;;;5.38;;
68212;SDS011;55035;47.792;8.724;2022-11-15T04:19:39;11.57;;;4.55;;
68212;SDS011;55035;47.792;8.724;2022-11-15T04:22:42;10.73;;;5.40;;
68212;SDS011;55035;47.792;8.724;2022-11-15T04:25:45;12.07;;;4.32;;
68212;SDS011;55035;47.792;8.724;2022-11-15T04:28:34;9.38;;;4.40;;
68212;SDS011;55035;47.792;8.724;2022-11-15T04:31:20;10.23;;;4.22;;
68212;SDS011;55035;47.792;8.724;2022-11-15T04:34:06;10.40;;;4.40;;
68212;SDS011;55035;47.792;8.724;2022-11-15T04:36:51;12.40;;;5.22;;
68212;SDS011;55035;47.792;8.724;2022-11-15T04:39:54;13.52;;;6.30;;
68212;SDS011;55035;47.792;8.724;2022-11-15T04:42:40;12.02;;;5.38;;
68212;SDS011;55035;47.792;8.724;2022-11-15T04:45:25;12.60;;;4.72;;
68212;SDS011;55035;47.792;8.724;2022-11-15T04:48:12;11.15;;;4.80;;
68212;SDS011;55035;47.792;8.724;2022-11-15T04:50:58;11.60;;;4.80;;
68212;SDS011;55035;47.792;8.724;2022-11-15T04:53:44;10.53;;;4.30;;
68212;SDS011;55035;47.792;8.724;2022-11-15T04:56:29;10.15;;;4.40;;
68212;SDS011;55035;47.792;8.724;2022-11-15T04:59:14;12.68;;;5.05;;
68212;SDS011;55035;47.792;8.724;2022-11-15T05:02:00;12.75;;;4.53;;
68212;SDS011;55035;47.792;8.724;2022-11-15T05:04:53;10.43;;;4.40;;
68212;SDS011;55035;47.792;8.724;2022-11-15T05:07:38;12.05;;;4.90;;
68212;SDS011;55035;47.792;8.724;2022-11-15T05:10:23;12.43;;;4.55;;
68212;SDS011;55035;47.792;8.724;2022-11-15T05:13:08;10.88;;;4.53;;
68212;SDS011;55035;47.792;8.724;2022-11-15T05:15:54;12.00;;;4.78;;
68212;SDS011;55035;47.792;8.724;2022-11-15T05:18:39;12.18;;;4.22;;
68212;SDS011;55035;47.792;8.724;2022-11-15T05:21:27;11.27;;;4.88;;
68212;SDS011;55035;47.792;8.724;2022-11-15T05:24:12;13.75;;;4.65;;
68212;SDS011;55035;47.792;8.724;2022-11-15T05:26:58;12.77;;;4.80;;
68212;SDS011;55035;47.792;8.724;2022-11-15T05:29:43;12.50;;;6.28;;
68212;SDS011;55035;47.792;8.724;2022-11-15T05:32:28;15.75;;;7.68;;
68212;SDS011;55035;47.792;8.724;2022-11-15T05:35:17;16.25;;;7.25;;
68212;SDS011;55035;47.792;8.724;2022-11-15T05:38:04;12.30;;;5.82;;
68212;SDS011;55035;47.792;8.724;2022-11-15T05:40:50;11.77;;;5.60;;
68212;SDS011;55035;47.792;8.724;2022-11-15T05:43:36;12.02;;;5.30;;
68212;SDS011;55035;47.792;8.724;2022-11-15T05:46:22;13.00;;;5.05;;
68212;SDS011;55035;47.792;8.724;2022-11-15T05:49:09;12.10;;;5.20;;
68212;SDS011;55035;47.792;8.724;2022-11-15T05:51:57;10.75;;;4.45;;
68212;SDS011;55035;47.792;8.724;2022-11-15T05:54:44;11.10;;;4.57;;
68212;SDS011;55035;47.792;8.724;2022-11-15T06:00:39;10.38;;;4.25;;
68212;SDS011;55035;47.792;8.724;2022-11-15T06:03:27;11.32;;;4.38;;
68212;SDS011;55035;47.792;8.724;2022-11-15T06:06:13;10.73;;;4.30;;
68212;SDS011;55035;47.792;8.724;2022-11-15T06:08:58;9.52;;;4.22;;
68212;SDS011;55035;47.792;8.724;2022-11-15T06:11:45;10.68;;;4.45;;
68212;SDS011;55035;47.792;8.724;2022-11-15T06:14:30;13.18;;;4.55;;
68212;SDS011;55035;47.792;8.724;2022-11-15T06:17:15;18.00;;;6.00;;
68212;SDS011;55035;47.792;8.724;2022-11-15T06:20:01;11.60;;;5.32;;
68212;SDS011;55035;47.792;8.724;2022-11-15T06:22:47;14.70;;;5.82;;
68212;SDS011;55035;47.792;8.724;2022-11-15T06:25:33;10.15;;;4.55;;
68212;SDS011;55035;47.792;8.724;2022-11-15T06:28:19;11.13;;;4.38;;
68212;SDS011;55035;47.792;8.724;2022-11-15T06:31:05;10.90;;;4.97;;
68212;SDS011;55035;47.792;8.724;2022-11-15T06:33:52;10.02;;;4.40;;
68212;SDS011;55035;47.792;8.724;2022-11-15T06:36:37;13.02;;;5.03;;
68212;SDS011;55035;47.792;8.724;2022-11-15T06:39:23;11.75;;;5.03;;
68212;SDS011;55035;47.792;8.724;2022-11-15T06:42:09;13.05;;;5.75;;
68212;SDS011;55035;47.792;8.724;2022-11-15T06:44:55;14.67;;;6.30;;
68212;SDS011;55035;47.792;8.724;2022-11-15T06:47:44;14.75;;;6.57;;
68212;SDS011;55035;47.792;8.724;2022-11-15T06:50:29;17.88;;;8.23;;
68212;SDS011;55035;47.792;8.724;2022-11-15T06:53:16;13.68;;;6.53;;
68212;SDS011;55035;47.792;8.724;2022-11-15T06:56:02;15.40;;;5.65;;
68212;SDS011;55035;47.792;8.724;2022-11-15T06:58:47;14.70;;;5.82;;
68212;SDS011;55035;47.792;8.724;2022-11-15T07:01:34;16.67;;;5.93;;
68212;SDS011;55035;47.792;8.724;2022-11-15T07:04:19;15.95;;;6.85;;
68212;SDS011;55035;47.792;8.724;2022-11-15T07:07:05;14.82;;;6.63;;
68212;SDS011;55035;47.792;8.724;2022-11-15T07:09:51;12.90;;;5.68;;
68212;SDS011;55035;47.792;8.724;2022-11-15T07:12:37;14.32;;;6.70;;
68212;SDS011;55035;47.792;8.724;2022-11-15T07:15:23;15.93;;;6.80;;
68212;SDS011;55035;47.792;8.724;2022-11-15T07:18:11;15.27;;;6.60;;
68212;SDS011;55035;47.792;8.724;2022-11-15T07:20:59;14.38;;;5.65;;
68212;SDS011;55035;47.792;8.724;2022-11-15T07:23:45;12.43;;;5.93;;
68212;SDS011;55035;47.792;8.724;2022-11-15T07:26:31;12.60;;;6.18;;
68212;SDS011;55035;47.792;8.724;2022-11-15T07:29:17;23.23;;;12.02;;
68212;SDS011;55035;47.792;8.724;2022-11-15T07:32:05;21.60;;;11.30;;
68212;SDS011;55035;47.792;8.724;2022-11-15T07:34:55;24.27;;;12.25;;
68212;SDS011;55035;47.792;8.724;2022-11-15T07:37:41;25.02;;;11.65;;
68212;SDS011;55035;47.792;8.724;2022-11-15T07:40:27;24.05;;;12.13;;
68212;SDS011;55035;47.792;8.724;2022-11-15T07:43:13;22.73;;;11.32;;
68212;SDS011;55035;47.792;8.724;2022-11-15T07:45:59;24.65;;;11.45;;
68212;SDS011;55035;47.792;8.724;2022-11-15T07:48:49;24.90;;;11.23;;
68212;SDS011;55035;47.792;8.724;2022-11-15T07:51:36;21.55;;;11.07;;
68212;SDS011;55035;47.792;8.724;2022-11-15T07:54:22;21.40;;;10.70;;
68212;SDS011;55035;47.792;8.724;2022-11-15T07:57:08;25.60;;;12.35;;
68212;SDS011;55035;47.792;8.724;2022-11-15T07:59:54;26.70;;;12.55;;
68212;SDS011;55035;47.792;8.724;2022-11-15T08:02:40;34.42;;;14.82;;
68212;SDS011;55035;47.792;8.724;2022-11-15T08:05:25;26.13;;;13.07;;
68212;SDS011;55035;47.792;8.724;2022-11-15T08:08:12;23.10;;;11.20;;
68212;SDS011;55035;47.792;8.724;2022-11-15T08:10:58;27.20;;;11.75;;
68212;SDS011;55035;47.792;8.724;2022-11-15T08:13:50;28.65;;;13.25;;
68212;SDS011;55035;47.792;8.724;2022-11-15T08:16:35;33.97;;;15.23;;
68212;SDS011;55035;47.792;8.724;2022-11-15T08:19:21;37.45;;;18.15;;
68212;SDS011;55035;47.792;8.724;2022-11-15T08:22:07;37.80;;;18.77;;
68212;SDS011;55035;47.792;8.724;2022-11-15T08:24:55;36.55;;;18.83;;
68212;SDS011;55035;47.792;8.724;2022-11-15T08:27:41;33.15;;;15.75;;
68212;SDS011;55035;47.792;8.724;2022-11-15T08:30:27;19.67;;;9.55;;
68212;SDS011;55035;47.792;8.724;2022-11-15T08:33:13;15.88;;;7.30;;
68212;SDS011;55035;47.792;8.724;2022-11-15T08:35:59;13.13;;;6.18;;
68212;SDS011;55035;47.792;8.724;2022-11-15T08:38:45;13.85;;;5.80;;
68212;SDS011;55035;47.792;8.724;2022-11-15T08:41:33;15.70;;;6.65;;
68212;SDS011;55035;47.792;8.724;2022-11-15T08:44:22;14.40;;;6.50;;
68212;SDS011;55035;47.792;8.724;2022-11-15T08:47:09;15.10;;;5.93;;
68212;SDS011;55035;47.792;8.724;2022-11-15T08:49:56;13.25;;;5.88;;
68212;SDS011;55035;47.792;8.724;2022-11-15T08:52:42;12.20;;;5.50;;
68212;SDS011;55035;47.792;8.724;2022-11-15T08:55:40;11.57;;;5.13;;
68212;SDS011;55035;47.792;8.724;2022-11-15T08:58:27;13.85;;;5.28;;
68212;SDS011;55035;47.792;8.724;2022-11-15T09:01:16;10.38;;;4.47;;
68212;SDS011;55035;47.792;8.724;2022-11-15T09:04:02;12.40;;;5.20;;
68212;SDS011;55035;47.792;8.724;2022-11-15T09:06:48;12.15;;;5.70;;
68212;SDS011;55035;47.792;8.724;2022-11-15T09:09:34;12.35;;;6.28;;
68212;SDS011;55035;47.792;8.724;2022-11-15T09:12:19;13.52;;;6.45;;
68212;SDS011;55035;47.792;8.724;2022-11-15T09:15:07;15.02;;;6.40;;
68212;SDS011;55035;47.792;8.724;2022-11-15T09:17:52;15.68;;;6.65;;
68212;SDS011;55035;47.792;8.724;2022-11-15T09:20:38;12.33;;;6.13;;
68212;SDS011;55035;47.792;8.724;2022-11-15T09:23:23;12.15;;;6.32;;
68212;SDS011;55035;47.792;8.724;2022-11-15T09:26:09;13.82;;;6.03;;
68212;SDS011;55035;47.792;8.724;2022-11-15T09:28:54;13.38;;;6.18;;
68212;SDS011;55035;47.792;8.724;2022-11-15T09:31:44;12.38;;;5.82;;
68212;SDS011;55035;47.792;8.724;2022-11-15T09:34:33;12.23;;;6.43;;
68212;SDS011;55035;47.792;8.724;2022-11-15T09:37:18;15.55;;;7.13;;
68212;SDS011;55035;47.792;8.724;2022-11-15T09:40:04;14.65;;;6.65;;
68212;SDS011;55035;47.792;8.724;2022-11-15T09:42:55;14.60;;;6.93;;
68212;SDS011;55035;47.792;8.724;2022-11-15T09:45:46;14.20;;;7.10;;
68212;SDS011;55035;47.792;8.724;2022-11-15T09:48:51;17.80;;;7.13;;
68212;SDS011;55035;47.792;8.724;2022-11-15T09:51:40;15.10;;;7.80;;
68212;SDS011;55035;47.792;8.724;2022-11-15T09:54:22;13.80;;;6.63;;
68212;SDS011;55035;47.792;8.724;2022-11-15T09:56:54;14.88;;;6.97;;
68212;SDS011;55035;47.792;8.724;2022-11-15T09:59:26;16.48;;;7.38;;
68212;SDS011;55035;47.792;8.724;2022-11-15T10:01:56;13.93;;;7.00;;
68212;SDS011;55035;47.792;8.724;2022-11-15T10:04:34;17.00;;;7.55;;
68212;SDS011;55035;47.792;8.724;2022-11-15T10:07:05;13.73;;;6.80;;
68212;SDS011;55035;47.792;8.724;2022-11-15T10:09:34;14.75;;;6.57;;
68212;SDS011;55035;47.792;8.724;2022-11-15T10:12:02;18.02;;;7.38;;
68212;SDS011;55035;47.792;8.724;2022-11-15T10:14:29;15.75;;;7.45;;
68212;SDS011;55035;47.792;8.724;2022-11-15T10:19:47;15.52;;;7.07;;
68212;SDS011;55035;47.792;8.724;2022-11-15T10:22:20;16.63;;;7.22;;
68212;SDS011;55035;47.792;8.724;2022-11-15T10:24:50;15.88;;;7.00;;
68212;SDS011;55035;47.792;8.724;2022-11-15T10:27:18;13.40;;;6.25;;
68212;SDS011;55035;47.792;8.724;2022-11-15T10:29:47;16.20;;;8.45;;
68212;SDS011;55035;47.792;8.724;2022-11-15T10:32:14;17.65;;;7.90;;
68212;SDS011;55035;47.792;8.724;2022-11-15T10:34:41;17.77;;;8.30;;
68212;SDS011;55035;47.792;8.724;2022-11-15T10:37:10;18.33;;;7.82;;
68212;SDS011;55035;47.792;8.724;2022-11-15T10:39:39;18.52;;;7.80;;
68212;SDS011;55035;47.792;8.724;2022-11-15T10:42:16;18.48;;;8.82;;
68212;SDS011;55035;47.792;8.724;2022-11-15T10:44:44;18.58;;;8.57;;
68212;SDS011;55035;47.792;8.724;2022-11-15T10:47:21;17.58;;;8.40;;
68212;SDS011;55035;47.792;8.724;2022-11-15T10:49:53;18.95;;;7.95;;
68212;SDS011;55035;47.792;8.724;2022-11-15T10:52:22;15.88;;;7.35;;
68212;SDS011;55035;47.792;8.724;2022-11-15T10:54:50;15.13;;;6.90;;
68212;SDS011;55035;47.792;8.724;2022-11-15T11:00:25;15.77;;;7.38;;
68212;SDS011;55035;47.792;8.724;2022-11-15T11:02:56;15.20;;;7.47;;
68212;SDS011;55035;47.792;8.724;2022-11-15T11:05:27;17.05;;;7.70;;
68212;SDS011;55035;47.792;8.724;2022-11-15T11:07:57;16.35;;;7.75;;
68212;SDS011;55035;47.792;8.724;2022-11-15T11:10:25;16.30;;;7.68;;
68212;SDS011;55035;47.792;8.724;2022-11-15T11:12:52;16.00;;;7.70;;
68212;SDS011;55035;47.792;8.724;2022-11-15T11:15:18;17.13;;;8.15;;
68212;SDS011;55035;47.792;8.724;2022-11-15T11:17:51;16.75;;;8.25;;
68212;SDS011;55035;47.792;8.724;2022-11-15T11:20:23;14.80;;;7.75;;
68212;SDS011;55035;47.792;8.724;2022-11-15T11:23:10;12.60;;;6.13;;
68212;SDS011;55035;47.792;8.724;2022-11-15T11:25:43;14.70;;;7.20;;
68212;SDS011;55035;47.792;8.724;2022-11-15T11:28:16;14.90;;;7.00;;
68212;SDS011;55035;47.792;8.724;2022-11-15T11:30:47;15.35;;;7.40;;
68212;SDS011;55035;47.792;8.724;2022-11-15T11:33:17;14.32;;;6.78;;
68212;SDS011;55035;47.792;8.724;2022-11-15T11:35:47;14.68;;;6.75;;
68212;SDS011;55035;47.792;8.724;2022-11-15T11:38:23;14.82;;;7.03;;
68212;SDS011;55035;47.792;8.724;2022-11-15T11:40:58;12.52;;;6.53;;
68212;SDS011;55035;47.792;8.724;2022-11-15T11:43:28;13.88;;;6.72;;
68212;SDS011;55035;47.792;8.724;2022-11-15T11:46:11;13.63;;;6.70;;
68212;SDS011;55035;47.792;8.724;2022-11-15T11:48:41;13.23;;;6.60;;
68212;SDS011;55035;47.792;8.724;2022-11-15T11:51:11;12.90;;;6.55;;
68212;SDS011;55035;47.792;8.724;2022-11-15T11:53:45;12.77;;;6.50;;
68212;SDS011;55035;47.792;8.724;2022-11-15T11:56:16;14.52;;;7.00;;
68212;SDS011;55035;47.792;8.724;2022-11-15T11:58:46;13.95;;;6.93;;
68212;SDS011;55035;47.792;8.724;2022-11-15T12:01:15;14.95;;;7.15;;
68212;SDS011;55035;47.792;8.724;2022-11-15T12:03:43;14.88;;;7.18;;
68212;SDS011;55035;47.792;8.724;2022-11-15T12:06:26;12.77;;;6.15;;
68212;SDS011;55035;47.792;8.724;2022-11-15T12:08:58;13.35;;;6.50;;
68212;SDS011;55035;47.792;8.724;2022-11-15T12:11:28;13.52;;;6.63;;
68212;SDS011;55035;47.792;8.724;2022-11-15T12:13:57;12.25;;;6.10;;
68212;SDS011;55035;47.792;8.724;2022-11-15T12:16:26;11.82;;;6.30;;
68212;SDS011;55035;47.792;8.724;2022-11-15T12:18:54;13.45;;;7.03;;
68212;SDS011;55035;47.792;8.724;2022-11-15T12:21:22;14.38;;;6.95;;
68212;SDS011;55035;47.792;8.724;2022-11-15T12:23:52;13.25;;;6.85;;
68212;SDS011;55035;47.792;8.724;2022-11-15T12:26:22;13.93;;;6.80;;
68212;SDS011;55035;47.792;8.724;2022-11-15T12:28:52;14.73;;;7.45;;
68212;SDS011;55035;47.792;8.724;2022-11-15T12:31:22;14.13;;;6.85;;
68212;SDS011;55035;47.792;8.724;2022-11-15T12:33:50;12.93;;;6.57;;
68212;SDS011;55035;47.792;8.724;2022-11-15T12:36:34;13.98;;;6.60;;
68212;SDS011;55035;47.792;8.724;2022-11-15T12:39:02;13.88;;;6.97;;
68212;SDS011;55035;47.792;8.724;2022-11-15T12:41:31;12.73;;;7.28;;
68212;SDS011;55035;47.792;8.724;2022-11-15T12:43:58;13.63;;;7.43;;
68212;SDS011;55035;47.792;8.724;2022-11-15T12:49:23;17.13;;;8.18;;
68212;SDS011;55035;47.792;8.724;2022-11-15T12:54:50;16.90;;;8.32;;
68212;SDS011;55035;47.792;8.724;2022-11-15T13:03:12;17.70;;;8.82;;
68212;SDS011;55035;47.792;8.724;2022-11-15T13:05:56;21.10;;;10.57;;
68212;SDS011;55035;47.792;8.724;2022-11-15T13:08:40;18.92;;;9.15;;
68212;SDS011;55035;47.792;8.724;2022-11-15T13:13:54;13.05;;;6.38;;
68212;SDS011;55035;47.792;8.724;2022-11-15T13:16:21;13.75;;;6.43;;
68212;SDS011;55035;47.792;8.724;2022-11-15T13:18:54;15.13;;;6.60;;
68212;SDS011;55035;47.792;8.724;2022-11-15T13:21:22;13.85;;;6.82;;
68212;SDS011;55035;47.792;8.724;2022-11-15T13:24:10;14.35;;;7.00;;
68212;SDS011;55035;47.792;8.724;2022-11-15T13:26:39;13.48;;;6.63;;
68212;SDS011;55035;47.792;8.724;2022-11-15T13:29:13;15.23;;;7.35;;
68212;SDS011;55035;47.792;8.724;2022-11-15T13:31:41;14.77;;;6.40;;
68212;SDS011;55035;47.792;8.724;2022-11-15T13:36:59;13.43;;;6.90;;
68212;SDS011;55035;47.792;8.724;2022-11-15T13:39:28;13.32;;;6.80;;
68212;SDS011;55035;47.792;8.724;2022-11-15T13:41:56;14.45;;;6.82;;
68212;SDS011;55035;47.792;8.724;2022-11-15T13:44:23;15.65;;;7.15;;
68212;SDS011;55035;47.792;8.724;2022-11-15T13:47:02;13.73;;;7.35;;
68212;SDS011;55035;47.792;8.724;2022-11-15T13:49:30;13.45;;;6.70;;
68212;SDS011;55035;47.792;8.724;2022-11-15T13:51:57;14.10;;;7.22;;
68212;SDS011;55035;47.792;8.724;2022-11-15T13:54:27;15.50;;;7.30;;
68212;SDS011;55035;47.792;8.724;2022-11-15T13:56:55;15.18;;;8.13;;
68212;SDS011;55035;47.792;8.724;2022-11-15T13:59:24;14.90;;;7.70;;
68212;SDS011;55035;47.792;8.724;2022-11-15T14:01:52;13.52;;;6.90;;
68212;SDS011;55035;47.792;8.724;2022-11-15T14:04:20;14.60;;;7.25;;
68212;SDS011;55035;47.792;8.724;2022-11-15T14:06:48;15.25;;;7.35;;
68212;SDS011;55035;47.792;8.724;2022-11-15T14:09:22;15.55;;;7.40;;
68212;SDS011;55035;47.792;8.724;2022-11-15T14:11:53;17.85;;;8.38;;
68212;SDS011;55035;47.792;8.724;2022-11-15T14:14:21;19.50;;;9.52;;
68212;SDS011;55035;47.792;8.724;2022-11-15T14:16:48;21.42;;;10.82;;
68212;SDS011;55035;47.792;8.724;2022-11-15T14:22:15;24.10;;;11.25;;
68212;SDS011;55035;47.792;8.724;2022-11-15T14:24:43;27.42;;;11.82;;
68212;SDS011;55035;47.792;8.724;2022-11-15T14:27:22;29.77;;;12.95;;
68212;SDS011;55035;47.792;8.724;2022-11-15T14:29:49;29.48;;;13.70;;
68212;SDS011;55035;47.792;8.724;2022-11-15T14:32:17;30.23;;;14.15;;
68212;SDS011;55035;47.792;8.724;2022-11-15T14:34:44;30.50;;;14.25;;
68212;SDS011;55035;47.792;8.724;2022-11-15T14:37:21;29.27;;;13.43;;
68212;SDS011;55035;47.792;8.724;2022-11-15T14:39:49;32.60;;;14.27;;
68212;SDS011;55035;47.792;8.724;2022-11-15T14:42:16;30.10;;;13.25;;
68212;SDS011;55035;47.792;8.724;2022-11-15T14:44:44;32.72;;;14.00;;
68212;SDS011;55035;47.792;8.724;2022-11-15T14:47:11;32.78;;;14.40;;
68212;SDS011;55035;47.792;8.724;2022-11-15T14:49:39;32.80;;;15.43;;
68212;SDS011;55035;47.792;8.724;2022-11-15T14:52:09;32.05;;;13.82;;
68212;SDS011;55035;47.792;8.724;2022-11-15T14:54:43;31.27;;;14.15;;
68212;SDS011;55035;47.792;8.724;2022-11-15T14:57:10;32.22;;;13.35;;
68212;SDS011;55035;47.792;8.724;2022-11-15T14:59:36;31.02;;;13.48;;
68212;SDS011;55035;47.792;8.724;2022-11-15T15:02:09;27.38;;;13.27;;
68212;SDS011;55035;47.792;8.724;2022-11-15T15:04:40;27.10;;;12.95;;
68212;SDS011;55035;47.792;8.724;2022-11-15T15:07:06;27.80;;;12.88;;
68212;SDS011;55035;47.792;8.724;2022-11-15T15:09:34;27.65;;;13.25;;
68212;SDS011;55035;47.792;8.724;2022-11-15T15:12:00;32.05;;;14.07;;
68212;SDS011;55035;47.792;8.724;2022-11-15T15:14:28;29.10;;;13.35;;
68212;SDS011;55035;47.792;8.724;2022-11-15T15:16:55;28.65;;;13.48;;
68212;SDS011;55035;47.792;8.724;2022-11-15T15:19:23;26.10;;;12.40;;
68212;SDS011;55035;47.792;8.724;2022-11-15T15:21:50;28.55;;;12.85;;
68212;SDS011;55035;47.792;8.724;2022-11-15T15:24:16;30.80;;;13.63;;
68212;SDS011;55035;47.792;8.724;2022-11-15T15:26:43;28.17;;;14.00;;
68212;SDS011;55035;47.792;8.724;2022-11-15T15:29:10;32.33;;;14.10;;
68212;SDS011;55035;47.792;8.724;2022-11-15T15:31:37;29.23;;;13.98;;
68212;SDS011;55035;47.792;8.724;2022-11-15T15:34:04;32.30;;;14.07;;
68212;SDS011;55035;47.792;8.724;2022-11-15T15:36:32;27.88;;;12.50;;
68212;SDS011;55035;47.792;8.724;2022-11-15T15:38:59;29.90;;;13.30;;
68212;SDS011;55035;47.792;8.724;2022-11-15T15:41:26;35.53;;;15.98;;
68212;SDS011;55035;47.792;8.724;2022-11-15T15:43:53;32.88;;;15.40;;
68212;SDS011;55035;47.792;8.724;2022-11-15T15:46:20;33.67;;;14.77;;
68212;SDS011;55035;47.792;8.724;2022-11-15T15:48:47;28.58;;;13.32;;
68212;SDS011;55035;47.792;8.724;2022-11-15T15:51:14;31.48;;;14.02;;
68212;SDS011;55035;47.792;8.724;2022-11-15T15:53:42;27.13;;;12.20;;
68212;SDS011;55035;47.792;8.724;2022-11-15T15:56:09;28.60;;;12.75;;
68212;SDS011;55035;47.792;8.724;2022-11-15T15:58:36;27.77;;;12.30;;
68212;SDS011;55035;47.792;8.724;2022-11-15T16:01:03;28.45;;;12.35;;
68212;SDS011;55035;47.792;8.724;2022-11-15T16:03:30;29.17;;;12.65;;
68212;SDS011;55035;47.792;8.724;2022-11-15T16:05:57;30.73;;;13.93;;
68212;SDS011;55035;47.792;8.724;2022-11-15T16:08:24;28.77;;;11.93;;
68212;SDS011;55035;47.792;8.724;2022-11-15T16:10:54;25.85;;;11.73;;
68212;SDS011;55035;47.792;8.724;2022-11-15T16:13:21;25.52;;;11.80;;
68212;SDS011;55035;47.792;8.724;2022-11-15T16:15:49;25.23;;;12.27;;
68212;SDS011;55035;47.792;8.724;2022-11-15T16:18:17;23.65;;;11.07;;
68212;SDS011;55035;47.792;8.724;2022-11-15T16:20:45;25.48;;;11.82;;
68212;SDS011;55035;47.792;8.724;2022-11-15T16:23:15;26.13;;;12.43;;